Terminal Aerodrome Forecast
Issued by NWS Wakefield, VA

Home | Current Version | Previous Version | Text Only | Print | Product List | Glossary On
Versions: 1 2 3 4 5 6 7 8 9 10 11 12 13
000
FTUS41 KAKQ 220500
TAFORF
TAF
KORF 220527Z 2206/2306 04008KT P6SM OVC100
     FM221000 04010KT 5SM -RA OVC030
     FM221300 05013G18KT 2SM -RA BR OVC009
     FM221900 06012G18KT 2SM -DZ BR OVC004
     FM230200 04007KT 4SM BR OVC004=

USA.gov is the U.S. government's official web portal to all federal, state and local government web resources and services.